Time;durP1;ratioP1;P1;durP2;ratioP2;P2;SDS_P1;SDS_P2;PMS_P1;PMS_P2;Temp;Humidity;BMP_temperature;BMP_pressure;BME280_temperature;BME280_humidity;BME280_pressure;Samples;Min_cycle;Max_cycle;Signal;HPM_P1;HPM_P2
2023/06/16 00:01:38;;;;;;;18.03;16.73;;;13.80;99.90;;;;;;5058311;28;20938;-42
2023/06/16 00:04:05;;;;;;;18.77;17.17;;;13.80;99.90;;;;;;5058783;28;20731;-42
2023/06/16 00:06:31;;;;;;;18.20;16.90;;;13.80;99.90;;;;;;5058839;28;20496;-43
2023/06/16 00:08:58;;;;;;;18.03;16.80;;;13.80;99.90;;;;;;5058797;28;20458;-42
2023/06/16 00:11:27;;;;;;;18.37;17.10;;;13.80;99.90;;;;;;5058692;28;20411;-43
2023/06/16 00:13:54;;;;;;;18.80;17.00;;;13.70;99.90;;;;;;5058125;28;20427;-46
2023/06/16 00:16:20;;;;;;;19.17;17.77;;;13.70;99.90;;;;;;5060541;28;20515;-43
2023/06/16 00:18:57;;;;;;;18.83;17.53;;;13.60;99.90;;;;;;5062302;28;20411;-42
2023/06/16 00:21:29;;;;;;;17.33;16.23;;;13.60;99.90;;;;;;5062791;28;20746;-44
2023/06/16 00:23:55;;;;;;;18.03;16.77;;;13.50;99.90;;;;;;5061939;28;20419;-47
2023/06/16 00:26:22;;;;;;;18.73;17.43;;;13.50;99.90;;;;;;5062104;28;20488;-42
2023/06/16 00:28:48;;;;;;;17.40;16.20;;;13.60;99.90;;;;;;5062128;28;20473;-43
2023/06/16 00:31:15;;;;;;;17.93;16.73;;;13.60;99.90;;;;;;5062740;28;20872;-43
2023/06/16 00:33:41;;;;;;;18.47;17.07;;;13.50;99.90;;;;;;5062445;28;20188;-42
2023/06/16 00:36:06;;;;;;;18.07;16.77;;;13.50;99.90;;;;;;5062003;28;20416;-41
2023/06/16 00:38:33;;;;;;;18.57;17.20;;;13.50;99.90;;;;;;5061636;28;20268;-42
2023/06/16 00:41:00;;;;;;;17.90;16.70;;;13.40;99.90;;;;;;5062181;28;20844;-46
2023/06/16 00:43:25;;;;;;;18.23;16.93;;;13.50;99.90;;;;;;5061045;28;20940;-42
2023/06/16 00:45:51;;;;;;;18.77;17.37;;;13.50;99.90;;;;;;5061711;28;20419;-43
2023/06/16 00:48:17;;;;;;;18.63;17.23;;;13.50;99.90;;;;;;5061531;28;20706;-45
2023/06/16 00:50:43;;;;;;;18.63;17.33;;;13.50;99.90;;;;;;5061953;28;20415;-43
2023/06/16 00:53:09;;;;;;;18.20;16.90;;;13.50;99.90;;;;;;5060945;28;20455;-42
2023/06/16 00:55:35;;;;;;;19.37;17.97;;;13.50;99.90;;;;;;5061880;28;20569;-42
2023/06/16 00:58:02;;;;;;;19.67;18.07;;;13.50;99.90;;;;;;5061413;28;20430;-42
2023/06/16 01:00:28;;;;;;;18.17;16.90;;;13.40;99.90;;;;;;5061521;28;20471;-47
2023/06/16 01:02:55;;;;;;;18.27;17.00;;;13.40;99.90;;;;;;5061474;28;20928;-44
2023/06/16 01:05:23;;;;;;;18.50;17.30;;;13.40;99.90;;;;;;5061710;28;20749;-43
2023/06/16 01:07:51;;;;;;;18.70;17.30;;;13.40;99.90;;;;;;5061350;28;20993;-52
2023/06/16 01:10:41;;;;;;;18.57;17.17;;;13.40;99.90;;;;;;5061291;28;20407;-53
2023/06/16 01:13:43;;;;;;;18.23;16.93;;;13.30;99.90;;;;;;5060040;28;21128;-50
2023/06/16 01:16:11;;;;;;;17.83;16.63;;;13.30;99.90;;;;;;5061258;28;20472;-54
2023/06/16 01:18:39;;;;;;;18.53;17.17;;;13.30;99.90;;;;;;5060919;28;20473;-49
2023/06/16 01:21:38;;;;;;;18.23;16.93;;;13.20;99.90;;;;;;5060976;28;21026;-50
2023/06/16 01:24:09;;;;;;;18.07;16.80;;;13.30;99.90;;;;;;5060780;28;20570;-52
2023/06/16 01:26:38;;;;;;;18.70;17.40;;;13.20;99.90;;;;;;5060424;28;20423;-49
2023/06/16 01:29:06;;;;;;;17.80;16.50;;;13.20;99.90;;;;;;5060917;28;20459;-52
2023/06/16 01:31:33;;;;;;;18.90;17.50;;;13.20;99.90;;;;;;5060932;28;20411;-52
2023/06/16 01:34:01;;;;;;;17.90;16.60;;;13.30;99.90;;;;;;5060711;28;20503;-52
2023/06/16 01:36:30;;;;;;;18.70;17.10;;;13.30;99.90;;;;;;5059275;28;20467;-52
2023/06/16 01:39:00;;;;;;;18.57;17.07;;;13.30;99.90;;;;;;5059554;28;20455;-48
2023/06/16 01:41:30;;;;;;;19.13;17.50;;;13.30;99.90;;;;;;5060595;28;20416;-47
2023/06/16 01:43:57;;;;;;;19.57;18.07;;;13.40;99.90;;;;;;5060395;28;20424;-47
2023/06/16 01:46:23;;;;;;;18.30;16.90;;;13.40;99.90;;;;;;5059656;28;21001;-48
2023/06/16 01:48:49;;;;;;;18.20;16.90;;;13.40;99.90;;;;;;5059704;28;20827;-50
2023/06/16 01:51:15;;;;;;;17.53;16.33;;;13.40;99.90;;;;;;5042081;28;20455;-49
2023/06/16 01:53:41;;;;;;;18.77;17.47;;;13.40;99.90;;;;;;5060313;28;20867;-52
2023/06/16 01:56:10;;;;;;;17.90;16.60;;;13.40;99.90;;;;;;5042323;28;20437;-51
2023/06/16 01:58:36;;;;;;;19.67;18.13;;;13.40;99.90;;;;;;5042112;28;20189;-50
2023/06/16 02:01:10;;;;;;;18.23;16.93;;;13.40;99.90;;;;;;5060680;28;20840;-46
2023/06/16 02:03:44;;;;;;;18.43;17.03;;;13.30;99.90;;;;;;5060143;28;20406;-49
2023/06/16 02:06:17;;;;;;;18.90;17.50;;;13.30;99.90;;;;;;5060345;28;20496;-48
2023/06/16 02:08:43;;;;;;;17.97;16.57;;;13.30;99.90;;;;;;5059845;28;20512;-53
2023/06/16 02:11:10;;;;;;;18.07;16.87;;;13.30;99.90;;;;;;5060175;28;20415;-55
2023/06/16 02:13:36;;;;;;;18.57;17.23;;;13.30;99.90;;;;;;5059321;28;20463;-53
2023/06/16 02:16:02;;;;;;;17.23;16.07;;;13.30;99.90;;;;;;5059452;28;20946;-53
2023/06/16 02:18:28;;;;;;;18.70;17.30;;;13.30;99.90;;;;;;5059761;28;20472;-51
2023/06/16 02:20:55;;;;;;;18.80;17.40;;;13.30;99.90;;;;;;5059638;28;20173;-47
2023/06/16 02:23:20;;;;;;;18.40;17.10;;;13.30;99.90;;;;;;5059646;28;20181;-49
2023/06/16 02:25:46;;;;;;;18.33;17.03;;;13.30;99.90;;;;;;5059910;28;20478;-53
2023/06/16 02:28:12;;;;;;;19.23;17.73;;;13.20;99.90;;;;;;5059479;28;20217;-50
2023/06/16 02:30:38;;;;;;;18.90;17.57;;;13.20;99.90;;;;;;5059570;28;20808;-50
2023/06/16 02:33:04;;;;;;;18.43;17.03;;;13.20;99.90;;;;;;5060209;28;20185;-49
2023/06/16 02:35:29;;;;;;;18.93;17.63;;;13.20;99.90;;;;;;5059437;28;20181;-53
2023/06/16 02:37:55;;;;;;;19.23;17.53;;;13.20;99.90;;;;;;5060214;28;20476;-53
2023/06/16 02:40:21;;;;;;;18.43;17.23;;;13.10;99.90;;;;;;5059604;28;20473;-56
2023/06/16 02:42:48;;;;;;;18.33;17.10;;;13.10;99.90;;;;;;5058573;28;20956;-51
2023/06/16 02:45:14;;;;;;;18.17;16.97;;;13.10;99.90;;;;;;5059290;28;20670;-53
2023/06/16 02:47:40;;;;;;;19.20;17.90;;;13.10;99.90;;;;;;5059412;28;20415;-51
2023/06/16 02:50:07;;;;;;;17.87;16.53;;;13.10;99.90;;;;;;5059392;28;20431;-55
2023/06/16 02:52:33;;;;;;;18.60;17.30;;;13.00;99.90;;;;;;5041381;28;20512;-53
2023/06/16 02:54:58;;;;;;;19.00;17.60;;;13.10;99.90;;;;;;5059573;28;20973;-51
2023/06/16 02:57:24;;;;;;;18.70;17.30;;;13.10;99.90;;;;;;5059792;28;20242;-52
2023/06/16 02:59:50;;;;;;;17.53;16.23;;;13.00;99.90;;;;;;5059186;28;20189;-55
2023/06/16 03:02:15;;;;;;;17.40;16.20;;;13.00;99.90;;;;;;5059408;28;20188;-52
2023/06/16 03:04:41;;;;;;;19.00;17.50;;;13.00;99.90;;;;;;5059304;28;20189;-52
2023/06/16 03:07:07;;;;;;;18.70;17.30;;;13.00;99.90;;;;;;5059621;28;20185;-49
2023/06/16 03:09:32;;;;;;;18.83;17.33;;;12.90;99.90;;;;;;5059198;28;20255;-54
2023/06/16 03:11:58;;;;;;;18.07;16.77;;;12.90;99.90;;;;;;5057281;28;20648;-53
2023/06/16 03:14:25;;;;;;;19.20;17.43;;;12.90;99.90;;;;;;5059349;28;20196;-51
2023/06/16 03:16:51;;;;;;;19.50;17.70;;;12.90;99.90;;;;;;5059128;28;20414;-51
2023/06/16 03:19:18;;;;;;;18.77;17.37;;;12.90;99.90;;;;;;5059176;28;20419;-51
2023/06/16 03:21:44;;;;;;;17.70;16.37;;;12.90;99.90;;;;;;5059257;28;20799;-52
2023/06/16 03:24:13;;;;;;;18.90;17.50;;;12.90;99.90;;;;;;5058959;28;20467;-53
2023/06/16 03:26:39;;;;;;;19.17;17.67;;;12.80;99.90;;;;;;5059185;28;20427;-51
2023/06/16 03:29:05;;;;;;;18.90;17.50;;;12.80;99.90;;;;;;5059067;28;20777;-54
2023/06/16 03:31:31;;;;;;;18.27;17.00;;;12.80;99.90;;;;;;5059229;28;20449;-54
2023/06/16 03:33:57;;;;;;;16.70;15.53;;;12.80;99.90;;;;;;5059236;28;20424;-48
2023/06/16 03:36:22;;;;;;;18.47;17.07;;;12.80;99.90;;;;;;5059457;28;20884;-47
2023/06/16 03:38:48;;;;;;;17.90;16.47;;;12.90;99.90;;;;;;5058855;28;20221;-48
2023/06/16 03:41:14;;;;;;;17.90;16.60;;;12.90;99.90;;;;;;5058471;28;20727;-49
2023/06/16 03:43:39;;;;;;;18.10;16.70;;;12.90;99.90;;;;;;5058854;28;20181;-52
2023/06/16 03:46:05;;;;;;;17.60;16.30;;;12.90;99.90;;;;;;5057444;28;20185;-52
2023/06/16 03:48:31;;;;;;;18.53;17.17;;;12.90;99.90;;;;;;5058261;28;20251;-47
2023/06/16 03:50:56;;;;;;;19.27;17.80;;;12.80;99.90;;;;;;5061110;28;20761;-54
2023/06/16 03:53:22;;;;;;;17.87;16.43;;;12.80;99.90;;;;;;5062994;28;20475;-48
2023/06/16 03:55:48;;;;;;;19.57;17.50;;;12.80;99.90;;;;;;5062837;28;20866;-53
2023/06/16 03:58:15;;;;;;;18.47;17.07;;;12.80;99.90;;;;;;5062546;28;20219;-53
2023/06/16 04:00:44;;;;;;;18.10;16.80;;;12.90;99.90;;;;;;5062639;28;20185;-51
2023/06/16 04:03:11;;;;;;;19.30;17.77;;;12.90;99.90;;;;;;5062934;28;20484;-48
2023/06/16 04:05:37;;;;;;;18.80;17.40;;;12.90;99.90;;;;;;5062042;28;20528;-50
2023/06/16 04:08:03;;;;;;;19.83;18.33;;;12.90;99.90;;;;;;5062106;28;20542;-52
2023/06/16 04:10:28;;;;;;;17.00;15.70;;;12.90;99.90;;;;;;5062472;28;20221;-52
2023/06/16 04:12:54;;;;;;;17.10;15.90;;;13.00;99.90;;;;;;5062031;28;20193;-51
2023/06/16 04:15:20;;;;;;;18.83;17.33;;;13.10;99.90;;;;;;5062396;28;20276;-54
2023/06/16 04:17:46;;;;;;;17.90;16.40;;;13.00;99.90;;;;;;5043187;28;20184;-52
2023/06/16 04:20:12;;;;;;;18.87;17.47;;;13.00;99.90;;;;;;5062200;28;20185;-52
2023/06/16 04:22:38;;;;;;;18.37;17.07;;;13.10;99.90;;;;;;5062003;28;20415;-54
2023/06/16 04:25:05;;;;;;;17.60;16.20;;;13.10;99.90;;;;;;5061636;28;20827;-54
2023/06/16 04:27:33;;;;;;;19.07;17.67;;;13.10;99.90;;;;;;5062230;28;20463;-54
2023/06/16 04:30:02;;;;;;;17.50;16.20;;;13.20;99.90;;;;;;5062237;28;20463;-53
2023/06/16 04:32:28;;;;;;;19.13;17.73;;;13.20;99.90;;;;;;5061076;28;20431;-52
2023/06/16 04:34:54;;;;;;;17.70;16.50;;;13.30;99.90;;;;;;5061887;28;20469;-50
2023/06/16 04:37:20;;;;;;;18.63;17.33;;;13.40;99.90;;;;;;5061927;28;20279;-55
2023/06/16 04:39:46;;;;;;;19.23;17.63;;;13.50;99.90;;;;;;5061866;28;20797;-53
2023/06/16 04:42:12;;;;;;;18.23;16.83;;;13.60;99.90;;;;;;5061953;28;20176;-54
2023/06/16 04:44:40;;;;;;;18.30;17.07;;;13.80;99.90;;;;;;5062234;28;20434;-52
2023/06/16 04:47:07;;;;;;;18.60;17.10;;;13.90;99.90;;;;;;5062135;28;20181;-50
2023/06/16 04:49:33;;;;;;;18.90;17.50;;;14.00;99.90;;;;;;5061783;28;20474;-53
2023/06/16 04:51:58;;;;;;;18.20;16.90;;;14.20;99.90;;;;;;5061749;28;20423;-54
2023/06/16 04:54:24;;;;;;;18.77;17.47;;;14.30;99.90;;;;;;5061722;28;21007;-55
2023/06/16 04:56:50;;;;;;;18.63;17.23;;;14.40;99.90;;;;;;5061987;28;20898;-52
2023/06/16 04:59:16;;;;;;;17.67;16.47;;;14.50;99.90;;;;;;5060942;28;20193;-51
2023/06/16 05:01:41;;;;;;;18.10;16.80;;;14.70;99.90;;;;;;5057645;28;20181;-50
2023/06/16 05:04:08;;;;;;;17.60;16.27;;;14.80;99.90;;;;;;5061544;28;20212;-50
2023/06/16 05:06:37;;;;;;;18.87;17.50;;;14.90;99.90;;;;;;5059854;28;20196;-49
2023/06/16 05:09:03;;;;;;;17.40;16.10;;;15.10;99.90;;;;;;5061098;28;20746;-55
2023/06/16 05:11:29;;;;;;;18.30;17.00;;;15.20;99.90;;;;;;5061297;28;20416;-49
2023/06/16 05:13:56;;;;;;;16.77;15.57;;;15.30;99.90;;;;;;5061213;28;20481;-52
2023/06/16 05:16:21;;;;;;;18.17;16.87;;;15.20;99.90;;;;;;5061143;28;20181;-52
2023/06/16 05:18:47;;;;;;;18.27;17.07;;;15.30;99.90;;;;;;5061176;28;20808;-49
2023/06/16 05:21:13;;;;;;;18.87;17.57;;;15.40;99.90;;;;;;5061053;28;20263;-45
2023/06/16 05:23:38;;;;;;;18.10;16.80;;;15.40;99.90;;;;;;5061232;28;20195;-42
2023/06/16 05:26:06;;;;;;;18.40;17.10;;;15.50;99.90;;;;;;5060983;28;20241;-48
2023/06/16 05:28:31;;;;;;;17.63;16.30;;;15.50;99.90;;;;;;5060753;28;20465;-52
2023/06/16 05:30:57;;;;;;;17.97;16.70;;;15.50;99.90;;;;;;5061054;28;20781;-52
2023/06/16 05:33:22;;;;;;;17.70;16.10;;;15.60;99.90;;;;;;5060375;28;20185;-54
2023/06/16 05:35:48;;;;;;;17.70;16.40;;;15.70;99.90;;;;;;5059813;28;20213;-51
2023/06/16 05:38:13;;;;;;;16.87;15.83;;;15.90;99.90;;;;;;5059796;28;20203;-50
2023/06/16 05:40:39;;;;;;;17.47;16.07;;;15.90;99.90;;;;;;5060883;28;20782;-52
2023/06/16 05:43:05;;;;;;;16.93;15.73;;;16.00;99.90;;;;;;5060853;28;20193;-49
2023/06/16 05:45:30;;;;;;;18.23;16.77;;;16.10;99.90;;;;;;5060854;28;20189;-49
2023/06/16 05:47:56;;;;;;;17.43;16.13;;;16.10;99.90;;;;;;5060581;28;20185;-53
2023/06/16 05:50:21;;;;;;;17.30;16.00;;;16.10;99.90;;;;;;5060889;28;20184;-51
2023/06/16 05:52:47;;;;;;;17.40;16.10;;;16.10;99.90;;;;;;5059088;28;20182;-55
2023/06/16 05:55:13;;;;;;;16.73;15.53;;;16.20;99.90;;;;;;5060547;28;20650;-48
2023/06/16 05:57:39;;;;;;;16.60;15.40;;;16.30;99.90;;;;;;5042202;28;20189;-51
2023/06/16 06:00:06;;;;;;;16.87;15.77;;;16.40;99.90;;;;;;5060513;28;20762;-54
2023/06/16 06:02:32;;;;;;;17.27;16.00;;;16.50;99.90;;;;;;5059603;28;20197;-52
2023/06/16 06:04:57;;;;;;;17.37;16.17;;;16.60;99.90;;;;;;5060358;28;20430;-50
2023/06/16 06:07:23;;;;;;;17.77;16.47;;;16.70;99.90;;;;;;5060523;28;20284;-50
2023/06/16 06:09:48;;;;;;;16.57;15.27;;;16.70;99.90;;;;;;5059807;28;20509;-54
2023/06/16 06:12:14;;;;;;;16.90;15.80;;;16.80;99.90;;;;;;5060335;28;20536;-52
2023/06/16 06:14:40;;;;;;;16.90;15.80;;;16.90;99.90;;;;;;5059708;28;20181;-52
2023/06/16 06:17:05;;;;;;;17.10;16.00;;;17.00;99.90;;;;;;5060096;28;20650;-52
2023/06/16 06:19:31;;;;;;;16.70;15.67;;;17.10;99.90;;;;;;5060245;28;20193;-53
2023/06/16 06:21:57;;;;;;;16.50;15.30;;;17.20;99.90;;;;;;5040705;28;20315;-51
2023/06/16 06:24:22;;;;;;;17.20;16.00;;;17.30;99.90;;;;;;5057969;28;20236;-50
2023/06/16 06:26:48;;;;;;;16.03;15.03;;;17.40;99.90;;;;;;5059504;28;21086;-50
2023/06/16 06:29:17;;;;;;;15.77;14.70;;;17.50;99.90;;;;;;5059919;28;20196;-49
2023/06/16 06:31:42;;;;;;;15.70;14.60;;;17.50;99.90;;;;;;5059926;28;20669;-46
2023/06/16 06:34:08;;;;;;;16.60;15.50;;;17.60;99.90;;;;;;5059717;28;20423;-53
2023/06/16 06:36:37;;;;;;;15.97;14.97;;;17.70;99.90;;;;;;5059785;28;20184;-48
2023/06/16 06:39:02;;;;;;;15.60;14.60;;;17.80;99.90;;;;;;5059812;28;20189;-49
2023/06/16 06:41:28;;;;;;;16.70;15.57;;;18.00;99.40;;;;;;5059649;28;20514;-50
2023/06/16 06:43:54;;;;;;;14.50;13.40;;;18.20;98.60;;;;;;5057823;28;20196;-54
2023/06/16 06:46:20;;;;;;;14.97;13.97;;;18.30;98.50;;;;;;5057879;28;20268;-54
2023/06/16 06:48:45;;;;;;;14.97;14.07;;;18.40;97.60;;;;;;5059388;28;20503;-55
2023/06/16 06:51:13;;;;;;;14.70;13.83;;;18.60;96.90;;;;;;5059680;28;20901;-53
2023/06/16 06:53:39;;;;;;;15.23;14.13;;;18.80;96.30;;;;;;5059290;28;20180;-54
2023/06/16 06:56:05;;;;;;;15.90;14.90;;;18.90;95.70;;;;;;5059418;28;20541;-53
2023/06/16 06:58:32;;;;;;;15.87;14.77;;;19.00;95.10;;;;;;5059752;28;20852;-54
2023/06/16 07:00:58;;;;;;;15.10;13.87;;;19.00;94.70;;;;;;5059208;28;20201;-53
2023/06/16 07:03:24;;;;;;;15.67;14.67;;;19.00;95.00;;;;;;5059432;28;20427;-52
2023/06/16 07:05:50;;;;;;;15.40;14.30;;;19.10;95.10;;;;;;5059619;28;20177;-52
2023/06/16 07:08:15;;;;;;;15.10;14.10;;;19.20;94.60;;;;;;5059342;28;20459;-49
2023/06/16 07:10:41;;;;;;;15.03;13.97;;;19.20;94.80;;;;;;5059456;28;20189;-54
2023/06/16 07:13:07;;;;;;;15.63;14.53;;;19.40;94.00;;;;;;5058928;28;20184;-55
2023/06/16 07:15:32;;;;;;;15.20;14.20;;;19.50;92.80;;;;;;5059122;28;20189;-50
2023/06/16 07:17:58;;;;;;;15.40;14.50;;;19.50;93.50;;;;;;5059457;28;20330;-55
2023/06/16 07:20:23;;;;;;;15.07;14.07;;;19.60;93.20;;;;;;5059722;28;20189;-53
2023/06/16 07:22:49;;;;;;;16.00;14.90;;;19.70;92.90;;;;;;5059187;28;20192;-48
2023/06/16 07:25:16;;;;;;;15.37;14.37;;;19.70;92.00;;;;;;5060059;28;20283;-48
2023/06/16 07:27:43;;;;;;;16.00;15.00;;;19.80;91.90;;;;;;5063579;28;20181;-53
2023/06/16 07:30:09;;;;;;;16.03;15.07;;;19.70;92.40;;;;;;5063556;28;20565;-52
2023/06/16 07:32:36;;;;;;;15.90;14.90;;;19.80;92.30;;;;;;5063071;28;20522;-50
2023/06/16 07:35:02;;;;;;;15.83;14.83;;;19.80;92.30;;;;;;5062935;28;20407;-52
2023/06/16 07:37:28;;;;;;;15.83;14.67;;;19.80;92.00;;;;;;5063990;28;20415;-53
2023/06/16 07:39:53;;;;;;;16.20;15.20;;;19.90;91.80;;;;;;5062701;28;20729;-51
2023/06/16 07:42:19;;;;;;;16.53;15.43;;;19.80;91.40;;;;;;5061859;28;20196;-51
2023/06/16 07:44:44;;;;;;;16.00;15.00;;;19.90;91.10;;;;;;5061639;28;20773;-52
2023/06/16 07:47:10;;;;;;;16.13;15.03;;;20.00;90.80;;;;;;5062904;28;20193;-47
2023/06/16 07:49:36;;;;;;;15.50;14.50;;;20.00;90.90;;;;;;5062183;28;20256;-49
2023/06/16 07:52:02;;;;;;;16.17;14.97;;;20.20;90.80;;;;;;5062625;28;20427;-49
2023/06/16 07:54:28;;;;;;;15.20;14.10;;;20.40;88.40;;;;;;5062898;28;20267;-50
2023/06/16 07:56:53;;;;;;;15.90;14.70;;;20.50;88.30;;;;;;5062711;28;20632;-58
2023/06/16 07:59:19;;;;;;;16.30;15.10;;;20.50;88.10;;;;;;5062706;28;20212;-50
2023/06/16 08:01:45;;;;;;;15.77;14.77;;;20.60;89.00;;;;;;5063081;28;20200;-51
2023/06/16 08:04:12;;;;;;;16.67;15.57;;;20.70;87.80;;;;;;5062517;28;20622;-53
2023/06/16 08:06:39;;;;;;;15.40;14.30;;;20.70;87.90;;;;;;5062660;28;20189;-51
2023/06/16 08:09:06;;;;;;;15.23;14.33;;;20.70;88.50;;;;;;5062631;28;20952;-50
2023/06/16 08:11:31;;;;;;;14.97;14.07;;;20.80;89.40;;;;;;5061852;28;20810;-50
2023/06/16 08:13:57;;;;;;;15.33;14.23;;;21.00;89.20;;;;;;5062841;28;20415;-53
2023/06/16 08:16:23;;;;;;;17.00;15.90;;;21.30;85.90;;;;;;5062771;28;20193;-51
2023/06/16 08:18:50;;;;;;;15.67;14.67;;;21.10;84.30;;;;;;5062118;28;20185;-51
2023/06/16 08:21:16;;;;;;;15.80;14.80;;;21.20;85.40;;;;;;5061093;28;20517;-50
2023/06/16 08:23:41;;;;;;;15.03;14.13;;;21.30;86.30;;;;;;5061828;28;20478;-55
2023/06/16 08:26:07;;;;;;;15.33;14.43;;;21.50;83.80;;;;;;5062115;28;20248;-51
2023/06/16 08:28:33;;;;;;;15.53;14.53;;;21.70;83.20;;;;;;5062038;28;20201;-53
2023/06/16 08:30:58;;;;;;;16.37;15.20;;;21.90;82.00;;;;;;5061166;28;20196;-53
2023/06/16 08:33:24;;;;;;;14.93;14.13;;;22.10;80.00;;;;;;5061034;28;20197;-49
2023/06/16 08:35:50;;;;;;;16.50;15.40;;;22.30;79.80;;;;;;5061985;28;20269;-50
2023/06/16 08:38:16;;;;;;;16.03;15.03;;;22.60;78.80;;;;;;5062431;28;20180;-51
2023/06/16 08:40:43;;;;;;;15.40;14.50;;;22.80;77.00;;;;;;5061932;28;20926;-49
2023/06/16 08:43:11;;;;;;;16.00;15.10;;;23.00;75.00;;;;;;5061690;28;20185;-52
2023/06/16 08:45:38;;;;;;;15.70;14.80;;;23.30;73.30;;;;;;5061931;28;20423;-49
2023/06/16 08:48:05;;;;;;;15.60;14.70;;;23.30;73.30;;;;;;5061545;28;20416;-47
2023/06/16 08:50:32;;;;;;;15.17;14.37;;;23.30;71.20;;;;;;5061965;28;20481;-47
2023/06/16 08:53:00;;;;;;;15.23;14.40;;;23.40;68.80;;;;;;5061327;28;20423;-51
2023/06/16 08:55:27;;;;;;;15.73;14.73;;;23.10;67.40;;;;;;5061979;28;20431;-53
2023/06/16 08:57:55;;;;;;;14.57;13.67;;;22.70;69.40;;;;;;5061561;28;20473;-53
2023/06/16 09:00:21;;;;;;;14.27;13.37;;;22.60;71.90;;;;;;5060483;28;20830;-52
2023/06/16 09:02:56;;;;;;;14.50;13.70;;;22.70;71.50;;;;;;5061349;28;20419;-53
2023/06/16 09:05:24;;;;;;;14.60;13.70;;;22.90;70.90;;;;;;5061778;28;20445;-45
2023/06/16 09:07:49;;;;;;;15.80;14.73;;;23.00;70.70;;;;;;5061473;28;20411;-50
2023/06/16 09:10:16;;;;;;;16.00;15.00;;;23.10;71.00;;;;;;5061148;28;20956;-50
2023/06/16 09:12:42;;;;;;;15.47;14.57;;;23.00;70.10;;;;;;5061462;28;20594;-53
2023/06/16 09:15:11;;;;;;;16.17;15.17;;;22.70;71.90;;;;;;5061369;28;20427;-47
2023/06/16 09:17:38;;;;;;;15.50;14.57;;;22.70;73.60;;;;;;5060136;28;20439;-53
2023/06/16 09:20:08;;;;;;;15.07;14.17;;;22.50;73.80;;;;;;5061169;28;20427;-46
2023/06/16 09:22:34;;;;;;;14.37;13.27;;;22.50;75.30;;;;;;5061150;28;20454;-52
2023/06/16 09:25:00;;;;;;;14.13;13.33;;;22.30;74.10;;;;;;5061340;28;20474;-51
2023/06/16 09:27:41;;;;;;;14.37;13.57;;;22.40;72.70;;;;;;5061085;28;20566;-55
2023/06/16 09:30:07;;;;;;;14.40;13.60;;;22.30;73.70;;;;;;5060491;28;20462;-53
2023/06/16 09:32:37;;;;;;;13.93;13.13;;;22.00;76.20;;;;;;5060786;28;20914;-52
2023/06/16 09:35:21;;;;;;;12.27;11.47;;;21.80;75.50;;;;;;5060775;28;21226;-52
2023/06/16 09:37:48;;;;;;;13.83;13.13;;;21.60;76.50;;;;;;5061141;28;20427;-53
2023/06/16 09:40:15;;;;;;;12.67;11.97;;;21.90;77.60;;;;;;5060907;28;20505;-51
2023/06/16 09:42:42;;;;;;;13.97;13.17;;;22.20;76.50;;;;;;5059704;28;20532;-53
2023/06/16 09:45:15;;;;;;;14.23;13.43;;;22.20;76.40;;;;;;5059028;28;20509;-52
2023/06/16 09:47:45;;;;;;;15.17;14.27;;;22.40;76.20;;;;;;5059962;28;20900;-47
2023/06/16 09:50:30;;;;;;;14.03;13.07;;;22.40;76.50;;;;;;5060985;28;20467;-50
2023/06/16 09:52:57;;;;;;;14.33;13.53;;;22.20;80.00;;;;;;5059692;28;20435;-51
2023/06/16 09:55:27;;;;;;;13.20;12.40;;;22.10;87.60;;;;;;5060873;28;20488;-54
2023/06/16 09:57:53;;;;;;;14.17;13.37;;;22.00;95.00;;;;;;5060262;28;20845;-50
2023/06/16 10:00:19;;;;;;;13.10;12.37;;;21.80;98.50;;;;;;5060228;28;20510;-53
2023/06/16 10:02:46;;;;;;;13.47;12.77;;;21.70;98.30;;;;;;5060522;28;20419;-49
2023/06/16 10:05:15;;;;;;;13.70;13.00;;;21.50;95.80;;;;;;5060231;28;20434;-52
2023/06/16 10:07:42;;;;;;;13.70;13.00;;;21.10;95.70;;;;;;5060495;28;20419;-50
2023/06/16 10:10:10;;;;;;;13.47;12.67;;;20.90;96.20;;;;;;5060156;28;21030;-50
2023/06/16 10:12:37;;;;;;;12.40;11.70;;;20.90;97.50;;;;;;5060447;28;20422;-54
2023/06/16 10:15:04;;;;;;;14.07;13.37;;;21.00;97.10;;;;;;5060536;28;20540;-51
2023/06/16 10:17:32;;;;;;;12.90;12.20;;;21.20;93.70;;;;;;5059978;28;20430;-46
2023/06/16 10:19:58;;;;;;;14.43;13.63;;;21.30;94.20;;;;;;5059252;28;20857;-52
2023/06/16 10:22:24;;;;;;;13.70;13.00;;;21.50;92.60;;;;;;5059066;28;20454;-54
2023/06/16 10:24:51;;;;;;;13.63;12.83;;;21.70;92.40;;;;;;5060103;28;20475;-48
2023/06/16 10:27:17;;;;;;;12.83;12.23;;;21.50;90.60;;;;;;5060049;28;20872;-54
2023/06/16 10:29:46;;;;;;;12.13;11.43;;;21.60;90.30;;;;;;5059725;28;20469;-51
2023/06/16 10:32:12;;;;;;;13.17;12.47;;;21.70;90.10;;;;;;5060003;28;20596;-52
2023/06/16 10:34:49;;;;;;;12.90;12.20;;;21.60;90.20;;;;;;5060570;28;20965;-53
2023/06/16 10:37:16;;;;;;;12.97;12.13;;;21.30;90.30;;;;;;5059571;28;20279;-49
2023/06/16 10:39:43;;;;;;;13.60;12.90;;;21.40;90.50;;;;;;5040956;28;20439;-48
2023/06/16 10:42:12;;;;;;;12.87;12.20;;;21.60;89.40;;;;;;5059071;28;20462;-50
2023/06/16 10:44:37;;;;;;;13.43;12.73;;;21.80;88.80;;;;;;5059350;28;20765;-51
2023/06/16 10:47:09;;;;;;;13.60;12.90;;;21.50;89.50;;;;;;5059996;28;20419;-50
2023/06/16 10:50:00;;;;;;;13.50;12.70;;;21.20;90.30;;;;;;5059317;28;20205;-51
2023/06/16 10:52:28;;;;;;;11.63;11.03;;;21.00;91.10;;;;;;5059674;28;20754;-50
2023/06/16 10:54:55;;;;;;;15.07;14.17;;;21.30;91.20;;;;;;5059625;28;20456;-50
2023/06/16 10:57:22;;;;;;;12.53;11.83;;;21.80;89.50;;;;;;5059547;28;20560;-49
2023/06/16 10:59:57;;;;;;;13.67;12.83;;;21.80;88.00;;;;;;5058187;28;20444;-53
2023/06/16 11:02:28;;;;;;;13.13;12.43;;;21.60;88.50;;;;;;5059550;28;20418;-47
2023/06/16 11:05:11;;;;;;;14.43;13.43;;;21.60;89.90;;;;;;5059571;28;20431;-53
2023/06/16 11:08:05;;;;;;;12.93;12.20;;;22.10;88.30;;;;;;5059131;28;20411;-51
2023/06/16 11:10:50;;;;;;;14.50;13.70;;;22.30;86.70;;;;;;5059553;28;20415;-53
2023/06/16 11:13:18;;;;;;;14.90;14.00;;;22.40;84.90;;;;;;5059347;28;20533;-52
2023/06/16 11:15:45;;;;;;;13.40;12.70;;;22.30;84.40;;;;;;5058256;28;20443;-52
2023/06/16 11:18:12;;;;;;;13.30;12.60;;;22.00;85.00;;;;;;5059481;28;20513;-53
2023/06/16 11:20:38;;;;;;;13.70;13.00;;;21.70;86.20;;;;;;5059378;28;20698;-52
2023/06/16 11:23:04;;;;;;;13.83;13.03;;;21.20;89.20;;;;;;5059027;28;20506;-50
2023/06/16 11:25:30;;;;;;;15.30;14.40;;;20.60;92.30;;;;;;5059199;28;20524;-50
2023/06/16 11:27:56;;;;;;;15.97;15.07;;;20.10;97.10;;;;;;5058822;28;21279;-54
2023/06/16 11:30:22;;;;;;;15.57;14.57;;;19.70;99.90;;;;;;5058661;28;20216;-53
2023/06/16 11:32:48;;;;;;;14.30;13.50;;;19.10;99.90;;;;;;5059204;28;20418;-52
2023/06/16 11:35:13;;;;;;;15.00;14.00;;;18.80;99.90;;;;;;5058972;28;20881;-49
2023/06/16 11:37:46;;;;;;;14.77;13.77;;;18.50;99.90;;;;;;5059954;28;20182;-49
2023/06/16 11:40:11;;;;;;;14.67;13.73;;;18.40;99.90;;;;;;5058976;28;20807;-49
2023/06/16 11:42:37;;;;;;;15.53;14.53;;;18.20;99.90;;;;;;5059475;28;20422;-50
2023/06/16 11:45:03;;;;;;;17.17;16.07;;;18.30;99.90;;;;;;5058015;28;20545;-52
2023/06/16 11:47:29;;;;;;;17.67;16.60;;;18.30;99.90;;;;;;5058789;28;20205;-49
2023/06/16 11:49:55;;;;;;;17.40;16.40;;;18.10;99.90;;;;;;5059110;28;20498;-51
2023/06/16 11:52:22;;;;;;;17.63;16.63;;;17.80;99.90;;;;;;5058663;28;21003;-49
2023/06/16 11:54:48;;;;;;;17.83;16.73;;;17.60;99.90;;;;;;5059031;28;20215;-50
2023/06/16 11:57:15;;;;;;;18.23;17.13;;;17.40;99.90;;;;;;5059052;28;20883;-50
2023/06/16 11:59:41;;;;;;;16.67;15.67;;;17.20;99.90;;;;;;5058790;28;20632;-51
2023/06/16 12:02:08;;;;;;;16.27;15.27;;;17.10;99.90;;;;;;5058126;28;20439;-49
2023/06/16 12:04:34;;;;;;;16.60;15.70;;;17.10;99.90;;;;;;5058818;28;20455;-50
2023/06/16 12:07:01;;;;;;;15.90;15.00;;;17.10;99.90;;;;;;5058631;28;21080;-49
2023/06/16 12:09:39;;;;;;;15.37;14.57;;;17.20;99.90;;;;;;5057689;28;20458;-51
2023/06/16 12:12:07;;;;;;;13.80;13.00;;;17.30;99.90;;;;;;5060335;28;20439;-49
2023/06/16 12:14:36;;;;;;;16.57;15.67;;;17.40;99.90;;;;;;5061537;28;20929;-53
2023/06/16 12:17:02;;;;;;;18.10;17.00;;;17.40;99.90;;;;;;5059510;28;20481;-47
2023/06/16 12:19:28;;;;;;;18.80;17.80;;;17.30;99.90;;;;;;5062056;28;20823;-50
2023/06/16 12:22:03;;;;;;;18.50;17.40;;;17.10;99.90;;;;;;5061559;28;20542;-51
2023/06/16 12:24:29;;;;;;;18.47;17.47;;;16.90;99.90;;;;;;5062016;28;20563;-48
2023/06/16 12:26:55;;;;;;;18.87;17.67;;;16.80;99.90;;;;;;5062583;28;20510;-49
2023/06/16 12:29:25;;;;;;;17.73;16.73;;;16.70;99.90;;;;;;5062201;28;20463;-49